Terminal Aerodrome Forecast
Issued by NWS

Home | Current Version | Previous Version | Graphics & Text | Print | Product List | Glossary On
Versions: 1 2 3 4 5 6 7 8 9 10 11 12 13 14 15 16 17 18 19 20 21 22 23 24 25
000
FTUS43 KTOP 231100
TAFFOE
TAF
KFOE 231128Z 2312/2412 16008KT 5SM -DZ BR OVC007
      TEMPO 2312/2314 3SM BR OVC004
     FM231700 28010KT 3SM -SHRA BR VCTS BKN006 OVC015CB
     FM232100 32020G29KT 5SM -RASN BR OVC020
     FM240600 32018G24KT P6SM BKN040=

USA.gov is the U.S. government's official web portal to all federal, state and local government web resources and services.